Time;durP1;ratioP1;P1;durP2;ratioP2;P2;SDS_P1;SDS_P2;PMS_P1;PMS_P2;Temp;Humidity;BMP_temperature;BMP_pressure;BME280_temperature;BME280_humidity;BME280_pressure;Samples;Min_cycle;Max_cycle;Signal;HPM_P1;HPM_P2
2023/07/02 00:00:07;;;;;;;1.80;1.35;;;22.10;80.30;;;;;;5026650;28;20022;-53
2023/07/02 00:02:33;;;;;;;3.05;1.63;;;22.10;80.30;;;;;;5026645;28;20037;-53
2023/07/02 00:04:58;;;;;;;3.95;2.08;;;22.10;80.10;;;;;;5020760;28;20053;-53
2023/07/02 00:07:25;;;;;;;4.72;1.60;;;22.10;80.20;;;;;;5026504;28;20026;-52
2023/07/02 00:09:51;;;;;;;3.20;1.73;;;22.10;80.00;;;;;;5022688;28;20033;-53
2023/07/02 00:12:17;;;;;;;5.30;1.70;;;22.10;80.00;;;;;;5027910;28;20033;-53
2023/07/02 00:14:42;;;;;;;2.70;1.50;;;22.10;79.90;;;;;;5027870;28;20041;-52
2023/07/02 00:17:08;;;;;;;2.33;1.52;;;22.10;80.10;;;;;;5008049;28;20022;-52
2023/07/02 00:19:33;;;;;;;6.03;1.70;;;22.00;80.30;;;;;;5022310;28;20042;-52
2023/07/02 00:21:59;;;;;;;2.33;1.55;;;22.00;80.40;;;;;;5023675;28;20035;-52
2023/07/02 00:24:25;;;;;;;2.90;1.73;;;22.00;80.60;;;;;;5008259;28;20026;-53
2023/07/02 00:26:50;;;;;;;4.28;1.83;;;22.00;80.70;;;;;;5025780;28;20061;-52
2023/07/02 00:29:16;;;;;;;3.67;1.42;;;22.00;80.90;;;;;;5010000;28;20837;-52
2023/07/02 00:31:41;;;;;;;4.07;1.60;;;22.00;80.80;;;;;;5009785;28;20025;-52
2023/07/02 00:34:07;;;;;;;4.57;1.40;;;22.00;80.70;;;;;;5027203;28;20032;-53
2023/07/02 00:36:32;;;;;;;2.17;1.20;;;22.00;80.80;;;;;;5017952;28;20057;-53
2023/07/02 00:38:58;;;;;;;2.33;1.55;;;22.00;80.90;;;;;;4990209;28;20042;-53
2023/07/02 00:41:24;;;;;;;3.92;1.42;;;22.00;81.00;;;;;;5022194;28;20034;-53
2023/07/02 00:43:49;;;;;;;1.85;1.33;;;21.90;81.00;;;;;;5024673;28;20022;-53
2023/07/02 00:46:22;;;;;;;2.92;1.42;;;21.90;81.20;;;;;;5027417;28;20091;-53
2023/07/02 00:48:51;;;;;;;2.70;1.13;;;21.90;81.20;;;;;;5010354;28;20117;-53
2023/07/02 00:51:26;;;;;;;4.82;1.63;;;21.90;81.20;;;;;;5012928;28;20034;-53
2023/07/02 00:53:55;;;;;;;;;;;21.80;81.30;;;;;;5024335;28;20049;-53
2023/07/02 00:56:22;;;;;;;4.07;1.60;;;21.80;81.60;;;;;;5024888;28;19910;-53
2023/07/02 00:58:50;;;;;;;2.42;1.38;;;21.80;81.70;;;;;;5025774;28;20046;-52
2023/07/02 01:01:16;;;;;;;3.38;1.67;;;21.80;81.80;;;;;;5017415;28;20030;-53
2023/07/02 01:03:55;;;;;;;4.03;1.27;;;21.80;81.90;;;;;;5018270;28;20038;-53
2023/07/02 01:06:28;;;;;;;4.25;1.58;;;21.80;82.10;;;;;;5024113;28;20374;-54
2023/07/02 01:08:55;;;;;;;3.40;1.35;;;21.80;82.50;;;;;;5025546;28;20087;-54
2023/07/02 01:11:21;;;;;;;2.17;1.50;;;21.70;82.40;;;;;;5025154;28;20034;-54
2023/07/02 01:13:48;;;;;;;1.33;1.20;;;21.70;82.70;;;;;;5009856;28;20101;-54
2023/07/02 01:16:14;;;;;;;1.25;1.10;;;21.70;82.70;;;;;;5024200;28;20129;-54
2023/07/02 01:18:39;;;;;;;1.85;1.30;;;21.70;82.50;;;;;;5025774;28;20041;-54
2023/07/02 01:21:06;;;;;;;2.25;1.70;;;21.80;82.70;;;;;;5021688;28;20026;-54
2023/07/02 01:23:32;;;;;;;2.10;1.40;;;21.70;82.90;;;;;;4999755;28;20085;-54
2023/07/02 01:25:59;;;;;;;3.35;1.50;;;21.70;83.00;;;;;;5005424;28;20023;-54
2023/07/02 01:28:25;;;;;;;2.58;1.48;;;21.70;83.30;;;;;;5037002;28;20053;-54
2023/07/02 01:30:50;;;;;;;1.75;1.20;;;21.70;83.30;;;;;;5025118;28;20101;-54
2023/07/02 01:33:16;;;;;;;2.40;1.48;;;21.60;83.40;;;;;;5025025;28;20068;-54
2023/07/02 01:35:42;;;;;;;5.03;1.60;;;21.70;83.50;;;;;;5024935;28;20030;-54
2023/07/02 01:38:07;;;;;;;4.72;1.48;;;21.60;83.50;;;;;;5006983;28;20057;-54
2023/07/02 01:40:33;;;;;;;2.20;1.63;;;21.60;83.60;;;;;;5025135;28;20366;-53
2023/07/02 01:42:59;;;;;;;3.22;1.63;;;21.50;83.70;;;;;;5008198;28;20033;-54
2023/07/02 01:45:25;;;;;;;3.78;1.77;;;21.60;84.00;;;;;;5025017;28;20018;-54
2023/07/02 01:47:50;;;;;;;3.13;1.80;;;21.60;84.00;;;;;;5026193;28;20049;-53
2023/07/02 01:50:16;;;;;;;3.55;1.60;;;21.50;84.10;;;;;;5008934;28;20030;-54
2023/07/02 01:52:42;;;;;;;2.25;1.48;;;21.50;84.30;;;;;;5019170;28;20080;-53
2023/07/02 01:55:08;;;;;;;1.80;1.40;;;21.50;84.40;;;;;;5021942;28;20117;-54
2023/07/02 01:57:33;;;;;;;3.60;1.50;;;21.50;84.30;;;;;;5024982;28;20041;-54
2023/07/02 01:59:59;;;;;;;1.65;1.48;;;21.50;84.40;;;;;;5025781;28;20026;-54
2023/07/02 02:02:24;;;;;;;5.20;1.60;;;21.50;84.40;;;;;;5024540;28;20030;-53
2023/07/02 02:04:50;;;;;;;1.95;1.70;;;21.50;84.30;;;;;;5024459;28;20037;-54
2023/07/02 02:07:15;;;;;;;2.10;1.63;;;21.40;84.40;;;;;;5016708;28;20026;-54
2023/07/02 02:09:41;;;;;;;2.95;1.42;;;21.40;84.30;;;;;;5014486;28;20372;-54
2023/07/02 02:12:07;;;;;;;1.83;1.63;;;21.40;84.30;;;;;;5019153;28;20049;-54
2023/07/02 02:14:32;;;;;;;3.85;1.60;;;21.40;84.40;;;;;;5016960;28;20061;-54
2023/07/02 02:16:58;;;;;;;6.10;1.50;;;21.40;84.40;;;;;;5024592;28;20034;-53
2023/07/02 02:19:23;;;;;;;2.58;1.83;;;21.40;84.50;;;;;;5025586;28;20083;-54
2023/07/02 02:21:49;;;;;;;2.72;1.88;;;21.40;84.60;;;;;;5025877;28;20020;-54
2023/07/02 02:24:14;;;;;;;1.90;1.80;;;21.40;84.60;;;;;;5025558;28;20401;-53
2023/07/02 02:26:40;;;;;;;2.45;1.83;;;21.40;84.60;;;;;;5025794;28;20046;-54
2023/07/02 02:29:05;;;;;;;2.03;1.75;;;21.40;84.70;;;;;;5024393;28;20045;-53
2023/07/02 02:31:31;;;;;;;3.42;1.67;;;21.30;84.60;;;;;;5025857;28;20042;-54
2023/07/02 02:33:57;;;;;;;3.42;1.70;;;21.40;84.70;;;;;;5013440;28;20042;-54
2023/07/02 02:36:22;;;;;;;2.03;1.70;;;21.30;84.70;;;;;;5024299;28;20072;-54
2023/07/02 02:38:48;;;;;;;2.65;1.60;;;21.30;84.80;;;;;;5024932;28;20398;-54
2023/07/02 02:41:13;;;;;;;2.90;1.83;;;21.30;84.90;;;;;;5025514;28;20026;-54
2023/07/02 02:43:45;;;;;;;2.55;2.17;;;21.20;84.80;;;;;;5010608;28;20041;-54
2023/07/02 02:46:11;;;;;;;2.13;1.90;;;21.20;84.90;;;;;;5023530;28;20026;-54
2023/07/02 02:48:36;;;;;;;2.22;1.80;;;21.20;84.90;;;;;;5025969;28;20042;-54
2023/07/02 02:51:02;;;;;;;2.40;1.90;;;21.20;84.90;;;;;;5024663;28;20367;-53
2023/07/02 02:53:27;;;;;;;2.58;2.05;;;21.20;85.00;;;;;;5026524;28;20029;-54
2023/07/02 02:55:53;;;;;;;2.00;1.80;;;21.20;84.90;;;;;;5012349;28;20034;-53
2023/07/02 02:58:19;;;;;;;3.47;2.00;;;21.20;84.90;;;;;;5008539;28;20153;-54
2023/07/02 03:00:45;;;;;;;2.10;1.90;;;21.20;84.80;;;;;;5027100;28;20068;-54
2023/07/02 03:03:12;;;;;;;2.33;1.90;;;21.20;84.80;;;;;;5018620;28;20018;-53
2023/07/02 03:05:38;;;;;;;3.90;1.98;;;21.20;84.70;;;;;;5028401;28;20057;-54
2023/07/02 03:08:03;;;;;;;1.98;1.77;;;21.20;84.70;;;;;;5014901;28;20030;-54
2023/07/02 03:10:29;;;;;;;3.08;2.40;;;21.20;84.90;;;;;;5008648;28;20030;-53
2023/07/02 03:12:54;;;;;;;2.42;2.20;;;21.20;85.00;;;;;;5020914;28;20034;-54
2023/07/02 03:15:20;;;;;;;3.30;2.45;;;21.20;85.20;;;;;;5029034;28;20026;-54
2023/07/02 03:17:46;;;;;;;2.45;2.22;;;21.20;85.30;;;;;;5013025;28;20478;-54
2023/07/02 03:20:11;;;;;;;2.35;2.05;;;21.10;85.20;;;;;;5027174;28;20034;-53
2023/07/02 03:22:37;;;;;;;4.15;2.25;;;21.10;85.30;;;;;;5027433;28;20029;-54
2023/07/02 03:25:03;;;;;;;3.60;2.30;;;21.10;85.30;;;;;;5027322;28;20050;-54
2023/07/02 03:27:28;;;;;;;4.70;2.33;;;21.10;85.40;;;;;;5028597;28;20088;-53
2023/07/02 03:29:54;;;;;;;8.07;2.50;;;21.10;85.40;;;;;;5022205;28;20026;-54
2023/07/02 03:32:19;;;;;;;3.33;2.35;;;21.10;85.50;;;;;;5027090;28;20446;-53
2023/07/02 03:34:45;;;;;;;2.60;2.40;;;21.10;85.60;;;;;;5028538;28;20052;-54
2023/07/02 03:37:10;;;;;;;2.83;2.50;;;21.00;85.50;;;;;;5027102;28;20029;-54
2023/07/02 03:39:36;;;;;;;3.00;2.40;;;21.10;85.50;;;;;;5028248;28;20072;-54
2023/07/02 03:42:01;;;;;;;3.63;2.75;;;21.00;85.50;;;;;;5028592;28;20049;-54
2023/07/02 03:44:27;;;;;;;4.07;2.90;;;21.00;85.60;;;;;;5028992;28;20470;-53
2023/07/02 03:46:53;;;;;;;3.90;2.90;;;21.00;85.60;;;;;;5028939;28;20054;-53
2023/07/02 03:49:19;;;;;;;5.80;2.67;;;21.00;85.60;;;;;;5027715;28;20040;-53
2023/07/02 03:51:44;;;;;;;4.70;3.20;;;21.00;86.30;;;;;;5028586;28;20045;-53
2023/07/02 03:54:10;;;;;;;4.35;3.35;;;21.00;85.60;;;;;;5027725;28;20101;-53
2023/07/02 03:56:35;;;;;;;3.88;3.05;;;21.00;85.60;;;;;;5010779;28;20108;-53
2023/07/02 03:59:01;;;;;;;3.47;3.15;;;21.00;85.60;;;;;;5028352;28;20089;-53
2023/07/02 04:01:26;;;;;;;4.28;2.90;;;20.90;85.60;;;;;;5028507;28;20038;-53
2023/07/02 04:03:52;;;;;;;3.75;3.35;;;20.90;85.50;;;;;;5023111;28;20026;-54
2023/07/02 04:06:18;;;;;;;4.72;3.15;;;20.90;85.50;;;;;;5009646;28;20049;-54
2023/07/02 04:08:44;;;;;;;3.70;3.30;;;21.00;85.50;;;;;;5027366;28;20101;-53
2023/07/02 04:11:10;;;;;;;4.05;3.58;;;21.00;85.40;;;;;;5026726;28;20046;-53
2023/07/02 04:13:35;;;;;;;5.97;3.25;;;20.90;86.00;;;;;;5019488;28;20041;-53
2023/07/02 04:16:01;;;;;;;5.35;2.95;;;20.90;85.40;;;;;;5016290;28;20588;-53
2023/07/02 04:18:26;;;;;;;3.30;3.00;;;20.90;85.50;;;;;;5006444;28;20031;-53
2023/07/02 04:20:52;;;;;;;4.85;3.55;;;20.90;85.50;;;;;;5037868;28;20054;-53
2023/07/02 04:23:18;;;;;;;5.20;3.45;;;20.90;85.60;;;;;;5025761;28;20038;-53
2023/07/02 04:25:43;;;;;;;4.28;3.50;;;20.90;85.60;;;;;;5020575;28;20120;-54
2023/07/02 04:28:09;;;;;;;4.45;3.38;;;20.90;85.60;;;;;;5023571;28;20033;-53
2023/07/02 04:30:34;;;;;;;6.43;3.20;;;20.80;85.60;;;;;;5026829;28;20037;-53
2023/07/02 04:33:00;;;;;;;4.32;3.20;;;20.80;85.70;;;;;;5026849;28;20034;-53
2023/07/02 04:35:26;;;;;;;3.95;3.28;;;20.80;85.70;;;;;;5027047;28;20026;-54
2023/07/02 04:37:51;;;;;;;6.05;3.28;;;20.80;85.60;;;;;;5009432;28;20035;-53
2023/07/02 04:40:17;;;;;;;4.43;3.45;;;20.80;85.50;;;;;;5006291;28;20041;-53
2023/07/02 04:42:57;;;;;;;3.47;3.15;;;20.80;85.50;;;;;;5004498;28;20038;-53
2023/07/02 04:45:23;;;;;;;5.45;3.72;;;20.80;85.50;;;;;;5025247;28;20033;-53
2023/07/02 04:47:48;;;;;;;3.92;3.00;;;20.80;85.50;;;;;;5006369;28;20610;-53
2023/07/02 04:50:14;;;;;;;5.53;3.20;;;20.80;85.50;;;;;;5008129;28;20026;-54
2023/07/02 04:52:40;;;;;;;5.63;3.20;;;20.80;85.50;;;;;;5023886;28;20034;-53
2023/07/02 04:55:06;;;;;;;5.35;3.25;;;20.80;85.50;;;;;;5026366;28;20041;-53
2023/07/02 04:57:31;;;;;;;3.92;3.47;;;20.80;85.50;;;;;;5027228;28;20026;-53
2023/07/02 04:59:57;;;;;;;4.05;3.65;;;20.80;85.50;;;;;;5009605;28;20037;-53
2023/07/02 05:02:22;;;;;;;5.70;3.50;;;20.80;85.50;;;;;;5026155;28;20034;-53
2023/07/02 05:04:48;;;;;;;6.22;3.15;;;20.70;85.40;;;;;;5026326;28;20025;-53
2023/07/02 05:07:15;;;;;;;6.78;3.63;;;20.80;85.50;;;;;;5026869;28;20052;-53
2023/07/02 05:09:41;;;;;;;3.92;3.47;;;20.80;85.40;;;;;;5009498;28;20060;-54
2023/07/02 05:12:07;;;;;;;4.03;3.42;;;20.80;85.50;;;;;;5018097;28;20058;-53
2023/07/02 05:14:32;;;;;;;5.40;3.60;;;20.80;85.50;;;;;;5026570;28;20045;-53
2023/07/02 05:16:58;;;;;;;4.25;3.60;;;20.80;85.60;;;;;;5024981;28;20025;-53
2023/07/02 05:19:24;;;;;;;5.03;3.63;;;20.80;85.50;;;;;;5025526;28;20087;-54
2023/07/02 05:21:49;;;;;;;3.80;3.40;;;20.80;85.50;;;;;;5026085;28;20398;-53
2023/07/02 05:24:15;;;;;;;4.78;3.58;;;20.80;85.50;;;;;;5025731;28;20036;-53
2023/07/02 05:26:40;;;;;;;4.10;3.05;;;20.80;85.50;;;;;;5026473;28;20033;-53
2023/07/02 05:29:06;;;;;;;7.20;3.53;;;20.80;85.60;;;;;;5025744;28;20057;-53
2023/07/02 05:31:31;;;;;;;4.00;3.42;;;20.80;85.50;;;;;;5016368;28;20089;-53
2023/07/02 05:33:57;;;;;;;4.38;3.70;;;20.80;85.70;;;;;;5023747;28;20030;-53
2023/07/02 05:36:22;;;;;;;4.80;3.47;;;20.80;85.80;;;;;;5007962;28;20462;-53
2023/07/02 05:38:48;;;;;;;4.45;3.47;;;20.80;85.80;;;;;;5009018;28;20120;-53
2023/07/02 05:41:20;;;;;;;4.00;3.60;;;20.80;85.90;;;;;;5025536;28;20026;-53
2023/07/02 05:43:46;;;;;;;4.07;3.65;;;20.80;86.10;;;;;;5008270;28;20539;-53
2023/07/02 05:46:13;;;;;;;4.72;3.97;;;20.90;85.90;;;;;;5008404;28;20029;-54
2023/07/02 05:48:39;;;;;;;5.10;3.95;;;20.90;85.80;;;;;;5025490;28;20029;-53
2023/07/02 05:51:05;;;;;;;3.97;3.40;;;20.90;85.60;;;;;;5026746;28;20026;-53
2023/07/02 05:53:30;;;;;;;6.75;3.33;;;20.90;85.50;;;;;;5025160;28;20030;-53
2023/07/02 05:55:56;;;;;;;4.35;3.53;;;20.90;86.10;;;;;;5026677;28;20029;-53
2023/07/02 05:58:21;;;;;;;6.30;3.80;;;20.90;86.00;;;;;;5026503;28;20030;-53
2023/07/02 06:00:50;;;;;;;5.70;3.72;;;20.90;86.10;;;;;;5026377;28;20025;-53
2023/07/02 06:03:21;;;;;;;4.57;3.90;;;20.90;86.20;;;;;;5026334;28;20026;-53
2023/07/02 06:05:49;;;;;;;4.75;3.88;;;20.90;86.30;;;;;;5009017;28;20026;-53
2023/07/02 06:08:16;;;;;;;4.30;3.72;;;20.90;86.30;;;;;;5003776;28;20030;-53
2023/07/02 06:10:42;;;;;;;4.97;3.30;;;20.90;86.20;;;;;;5025039;28;20030;-53
2023/07/02 06:13:07;;;;;;;5.85;3.92;;;20.90;86.30;;;;;;5025422;28;20038;-54
2023/07/02 06:15:33;;;;;;;4.35;3.75;;;20.90;86.40;;;;;;5007867;28;20107;-53
2023/07/02 06:17:58;;;;;;;4.68;3.72;;;20.90;86.50;;;;;;5024498;28;20053;-53
2023/07/02 06:20:24;;;;;;;4.88;3.75;;;20.90;86.50;;;;;;5026036;28;20052;-53
2023/07/02 06:22:49;;;;;;;5.93;3.67;;;20.90;86.50;;;;;;5024657;28;20045;-53
2023/07/02 06:25:15;;;;;;;4.80;3.80;;;20.90;86.70;;;;;;5024973;28;20030;-53
2023/07/02 06:27:40;;;;;;;4.05;3.55;;;20.90;86.80;;;;;;4999622;28;20474;-53
2023/07/02 06:30:07;;;;;;;5.18;4.20;;;20.90;86.90;;;;;;5010564;28;20030;-53
2023/07/02 06:32:32;;;;;;;4.22;3.78;;;20.90;86.90;;;;;;5001228;28;20116;-53
2023/07/02 06:34:58;;;;;;;4.85;4.07;;;20.90;87.00;;;;;;5012498;28;20030;-54
2023/07/02 06:37:23;;;;;;;4.60;3.50;;;20.90;87.10;;;;;;5028526;28;20030;-53
2023/07/02 06:39:49;;;;;;;5.70;4.03;;;20.90;87.00;;;;;;5023314;28;20030;-54
2023/07/02 06:42:14;;;;;;;4.72;3.97;;;20.90;86.90;;;;;;5008308;28;20030;-53
2023/07/02 06:44:40;;;;;;;4.68;3.88;;;20.90;86.90;;;;;;5008848;28;20018;-53
2023/07/02 06:47:06;;;;;;;5.78;4.20;;;20.90;87.00;;;;;;5010963;28;20022;-54
2023/07/02 06:49:32;;;;;;;5.72;4.18;;;20.90;87.00;;;;;;5028846;28;20551;-53
2023/07/02 06:51:57;;;;;;;4.65;4.07;;;20.90;87.10;;;;;;5026907;28;20561;-54
2023/07/02 06:54:23;;;;;;;5.63;4.07;;;20.90;87.00;;;;;;5028607;28;20049;-53
2023/07/02 06:56:48;;;;;;;6.18;4.38;;;20.90;87.10;;;;;;5029188;28;20041;-53
2023/07/02 06:59:22;;;;;;;6.15;4.40;;;20.90;87.00;;;;;;5029094;28;20101;-53
2023/07/02 07:01:47;;;;;;;6.18;4.05;;;20.90;87.00;;;;;;5029494;28;20030;-53
2023/07/02 07:04:13;;;;;;;5.90;4.22;;;20.90;87.30;;;;;;5027420;28;20045;-53
2023/07/02 07:06:38;;;;;;;5.63;4.65;;;20.90;87.50;;;;;;5023554;28;20105;-54
2023/07/02 07:09:04;;;;;;;6.65;5.47;;;20.90;87.30;;;;;;5016899;28;20040;-53
2023/07/02 07:11:29;;;;;;;7.18;5.20;;;20.90;87.30;;;;;;5029011;28;20036;-53
2023/07/02 07:13:55;;;;;;;8.70;5.60;;;20.90;87.30;;;;;;5028645;28;20110;-53
2023/07/02 07:16:21;;;;;;;7.07;6.15;;;20.90;87.20;;;;;;5029548;28;20030;-53
2023/07/02 07:18:47;;;;;;;10.00;6.30;;;20.90;87.20;;;;;;5010650;28;20041;-53
2023/07/02 07:21:13;;;;;;;7.68;6.18;;;20.90;87.20;;;;;;5023573;28;20422;-53
2023/07/02 07:23:39;;;;;;;8.10;6.50;;;20.80;87.10;;;;;;5043623;28;20080;-53
2023/07/02 07:26:04;;;;;;;8.57;6.78;;;20.80;87.00;;;;;;5028720;28;20059;-53
2023/07/02 07:28:30;;;;;;;8.45;6.68;;;20.80;87.00;;;;;;5020367;28;20031;-53
2023/07/02 07:30:55;;;;;;;11.10;6.90;;;20.80;87.00;;;;;;5017715;28;20064;-53
2023/07/02 07:33:21;;;;;;;9.63;7.30;;;20.80;86.90;;;;;;5028260;28;20045;-53
2023/07/02 07:35:46;;;;;;;11.07;7.88;;;20.80;86.70;;;;;;5027020;28;20033;-53
2023/07/02 07:38:14;;;;;;;10.73;8.15;;;20.80;86.50;;;;;;5027866;28;20061;-54
2023/07/02 07:40:40;;;;;;;11.70;8.98;;;20.90;86.50;;;;;;5009294;28;20045;-53
2023/07/02 07:43:05;;;;;;;14.18;9.05;;;20.80;86.20;;;;;;5007999;28;20035;-53
2023/07/02 07:45:31;;;;;;;15.77;9.07;;;20.90;86.10;;;;;;5013873;28;20071;-54
2023/07/02 07:47:56;;;;;;;13.18;9.70;;;20.80;86.00;;;;;;5025023;28;20069;-53
2023/07/02 07:50:22;;;;;;;12.10;9.45;;;20.90;86.00;;;;;;5027815;28;20029;-54
2023/07/02 07:52:47;;;;;;;14.00;9.63;;;20.90;85.90;;;;;;5022242;28;20038;-53
2023/07/02 07:55:13;;;;;;;14.02;10.00;;;20.90;85.80;;;;;;5007885;28;20120;-53
2023/07/02 07:57:39;;;;;;;12.60;10.00;;;20.90;85.70;;;;;;4991435;28;20035;-53
2023/07/02 08:00:07;;;;;;;11.27;10.07;;;20.90;85.60;;;;;;5020254;28;20026;-53
2023/07/02 08:02:33;;;;;;;15.75;10.55;;;20.90;85.50;;;;;;5027623;28;20038;-53
2023/07/02 08:04:59;;;;;;;14.93;10.73;;;20.90;85.40;;;;;;5007532;28;20033;-53
2023/07/02 08:07:24;;;;;;;19.33;10.90;;;20.90;85.30;;;;;;5016180;28;20026;-53
2023/07/02 08:09:50;;;;;;;17.08;11.55;;;21.00;85.30;;;;;;5027282;28;20030;-53
2023/07/02 08:12:15;;;;;;;20.77;12.57;;;20.90;85.20;;;;;;5026525;28;20033;-53
2023/07/02 08:14:41;;;;;;;21.90;12.18;;;20.90;85.10;;;;;;5027345;28;20114;-53
2023/07/02 08:17:06;;;;;;;25.40;12.68;;;20.90;85.00;;;;;;5027513;28;20038;-53
2023/07/02 08:19:32;;;;;;;21.50;12.77;;;21.00;85.00;;;;;;5027713;28;20034;-53
2023/07/02 08:21:57;;;;;;;28.80;13.48;;;21.00;85.00;;;;;;5026434;28;20060;-53
2023/07/02 08:24:23;;;;;;;29.80;14.05;;;21.00;84.90;;;;;;5027554;28;20030;-53
2023/07/02 08:26:49;;;;;;;47.20;15.10;;;21.00;84.90;;;;;;5026863;28;20026;-53
2023/07/02 08:29:15;;;;;;;162.13;26.40;;;21.00;84.90;;;;;;5026235;28;20030;-53
2023/07/02 08:31:41;;;;;;;107.80;22.92;;;21.10;84.70;;;;;;5010425;28;20031;-52
2023/07/02 08:34:06;;;;;;;70.65;18.42;;;21.10;84.50;;;;;;5027215;28;20116;-54
2023/07/02 08:36:32;;;;;;;59.28;18.30;;;21.10;84.70;;;;;;5026636;28;20030;-53
2023/07/02 08:38:57;;;;;;;42.80;15.93;;;21.10;84.60;;;;;;5023642;28;20036;-53
2023/07/02 08:41:23;;;;;;;47.95;15.98;;;21.10;84.40;;;;;;5026073;28;20077;-53
2023/07/02 08:43:49;;;;;;;65.50;17.48;;;21.10;85.00;;;;;;5023496;28;20097;-53
2023/07/02 08:46:15;;;;;;;69.07;17.35;;;21.10;84.20;;;;;;5026278;28;20034;-53
2023/07/02 08:48:41;;;;;;;64.93;18.75;;;21.20;84.00;;;;;;5026706;28;20037;-53
2023/07/02 08:51:07;;;;;;;61.60;16.92;;;21.20;83.90;;;;;;5024446;28;20037;-53
2023/07/02 08:53:33;;;;;;;74.45;19.13;;;21.20;83.90;;;;;;5020270;28;20069;-54
2023/07/02 08:56:05;;;;;;;73.47;20.80;;;21.20;83.90;;;;;;5023955;28;20037;-53
2023/07/02 08:58:30;;;;;;;67.95;19.42;;;21.20;83.90;;;;;;5007090;28;20030;-53
2023/07/02 09:01:06;;;;;;;60.50;19.95;;;21.30;83.90;;;;;;5013311;28;20042;-53
2023/07/02 09:03:32;;;;;;;78.22;21.27;;;21.30;83.90;;;;;;5025423;28;20030;-53
2023/07/02 09:05:58;;;;;;;85.00;20.60;;;21.40;84.10;;;;;;5009066;28;20109;-53
2023/07/02 09:08:27;;;;;;;87.45;22.73;;;21.40;84.10;;;;;;5009410;28;20031;-53
2023/07/02 09:10:53;;;;;;;89.88;22.27;;;21.40;84.10;;;;;;5024993;28;20029;-53
2023/07/02 09:13:18;;;;;;;77.60;21.23;;;21.40;84.00;;;;;;5018326;28;20038;-53
2023/07/02 09:15:44;;;;;;;84.82;22.00;;;21.40;83.80;;;;;;5005789;28;20030;-53
2023/07/02 09:18:19;;;;;;;56.47;21.02;;;21.50;83.90;;;;;;5020258;28;20037;-53
2023/07/02 09:20:44;;;;;;;58.95;20.17;;;21.50;83.80;;;;;;5023221;28;20030;-53
2023/07/02 09:23:10;;;;;;;63.25;20.63;;;21.50;83.80;;;;;;4990483;28;20092;-53
2023/07/02 09:25:39;;;;;;;85.90;23.77;;;21.30;83.50;;;;;;5018936;28;20026;-53
2023/07/02 09:28:22;;;;;;;79.38;22.98;;;21.50;84.60;;;;;;5018166;28;20057;-53
2023/07/02 09:30:58;;;;;;;93.68;22.80;;;21.50;84.00;;;;;;5025329;28;20032;-53
2023/07/02 09:33:27;;;;;;;96.75;23.98;;;21.60;84.00;;;;;;4998693;28;20536;-53
2023/07/02 09:35:53;;;;;;;93.07;23.63;;;21.60;84.30;;;;;;5019312;28;20049;-52
2023/07/02 09:38:19;;;;;;;67.72;22.20;;;21.60;84.10;;;;;;5017980;28;20026;-53
2023/07/02 09:40:54;;;;;;;99.70;24.27;;;21.60;84.00;;;;;;5023823;28;20049;-53
2023/07/02 09:43:19;;;;;;;97.67;23.77;;;21.60;83.80;;;;;;5003913;28;20257;-52
2023/07/02 09:45:46;;;;;;;110.07;25.80;;;21.70;83.70;;;;;;5009072;28;20140;-52
2023/07/02 09:48:15;;;;;;;81.95;24.40;;;21.70;83.80;;;;;;5010119;28;20114;-52
2023/07/02 09:50:45;;;;;;;139.40;28.77;;;21.70;83.40;;;;;;5016798;28;20033;-53
2023/07/02 09:53:11;;;;;;;144.15;27.92;;;21.70;83.30;;;;;;5013583;28;20080;-52
2023/07/02 09:55:41;;;;;;;178.38;32.25;;;21.70;83.40;;;;;;5018113;28;20044;-53
2023/07/02 09:58:07;;;;;;;172.50;33.20;;;21.70;83.60;;;;;;5019782;28;20042;-52
2023/07/02 10:00:32;;;;;;;117.18;27.35;;;21.70;83.40;;;;;;5005851;28;20649;-52
2023/07/02 10:03:00;;;;;;;130.32;28.40;;;21.70;83.20;;;;;;4994643;28;20027;-52
2023/07/02 10:05:29;;;;;;;112.05;29.38;;;21.70;83.10;;;;;;5018565;28;20034;-53
2023/07/02 10:07:56;;;;;;;102.95;26.20;;;21.80;83.10;;;;;;5016005;28;20033;-53
2023/07/02 10:10:30;;;;;;;107.30;27.77;;;21.80;82.90;;;;;;5021170;28;20026;-53
2023/07/02 10:12:56;;;;;;;89.47;26.38;;;21.80;83.00;;;;;;5003236;28;20097;-53
2023/07/02 10:15:29;;;;;;;226.57;41.33;;;21.80;82.90;;;;;;5020732;28;20038;-53
2023/07/02 10:17:56;;;;;;;144.27;28.25;;;21.80;83.20;;;;;;5007293;28;20091;-52
2023/07/02 10:20:34;;;;;;;110.72;25.73;;;21.90;83.00;;;;;;4997105;28;20029;-53
2023/07/02 10:23:01;;;;;;;81.20;24.73;;;21.90;82.90;;;;;;5036362;28;20432;-53
2023/07/02 10:25:28;;;;;;;122.20;28.17;;;21.90;82.90;;;;;;5021144;28;20041;-52
2023/07/02 10:27:54;;;;;;;112.45;29.38;;;21.90;82.80;;;;;;5022047;28;20041;-52
2023/07/02 10:30:30;;;;;;;120.97;27.35;;;22.00;82.90;;;;;;5007264;28;20032;-52
2023/07/02 10:33:06;;;;;;;115.60;27.38;;;22.00;83.10;;;;;;5020430;28;20093;-52
2023/07/02 10:35:32;;;;;;;86.00;25.88;;;22.00;83.10;;;;;;5019206;28;20114;-53
2023/07/02 10:37:58;;;;;;;104.15;26.05;;;22.00;82.90;;;;;;5013612;28;20042;-53
2023/07/02 10:40:23;;;;;;;113.57;29.27;;;22.10;82.80;;;;;;5012735;28;20095;-53
2023/07/02 10:42:50;;;;;;;105.03;26.95;;;22.10;82.70;;;;;;5023133;28;20045;-52
2023/07/02 10:45:16;;;;;;;135.20;28.08;;;22.20;82.60;;;;;;5020391;28;20042;-52
2023/07/02 10:47:42;;;;;;;104.63;25.90;;;22.20;82.60;;;;;;5021538;28;20114;-52
2023/07/02 10:50:17;;;;;;;94.38;25.08;;;22.20;82.50;;;;;;5013896;28;20133;-52
2023/07/02 10:52:43;;;;;;;;;;;22.30;82.40;;;;;;4995965;28;20038;-52
2023/07/02 10:55:08;;;;;;;;;;;22.30;82.40;;;;;;5021979;28;19909;-53
2023/07/02 10:57:34;;;;;;;93.37;25.40;;;22.30;82.60;;;;;;5020811;28;19933;-52
2023/07/02 11:00:09;;;;;;;82.50;23.77;;;22.40;83.00;;;;;;5005878;28;20025;-52
2023/07/02 11:02:37;;;;;;;108.40;25.52;;;22.40;82.10;;;;;;5022343;28;20034;-53
2023/07/02 11:05:06;;;;;;;119.13;25.45;;;22.50;82.10;;;;;;5027764;28;20033;-52
2023/07/02 11:07:35;;;;;;;106.90;25.05;;;22.50;81.90;;;;;;5029228;28;20030;-56
2023/07/02 11:10:00;;;;;;;99.80;24.90;;;22.60;81.90;;;;;;5027995;28;20057;-57
2023/07/02 11:12:30;;;;;;;107.05;24.13;;;22.60;81.80;;;;;;5014319;28;20065;-57
2023/07/02 11:14:55;;;;;;;80.53;22.33;;;22.70;81.70;;;;;;5022295;28;20052;-57
2023/07/02 11:17:25;;;;;;;103.97;23.67;;;22.80;81.40;;;;;;5019825;28;20037;-57
2023/07/02 11:19:51;;;;;;;93.95;23.38;;;22.80;82.00;;;;;;5022989;28;20032;-57
2023/07/02 11:22:16;;;;;;;101.45;24.27;;;22.90;81.30;;;;;;5024062;28;20034;-56
2023/07/02 11:24:42;;;;;;;111.05;24.88;;;23.10;81.00;;;;;;5039234;28;20021;-57
2023/07/02 11:27:07;;;;;;;106.07;23.70;;;23.10;80.70;;;;;;5023608;28;20108;-56
2023/07/02 11:29:34;;;;;;;99.90;23.67;;;23.10;80.60;;;;;;5010113;28;20022;-56
2023/07/02 11:32:09;;;;;;;88.80;22.80;;;23.20;80.60;;;;;;5018843;28;20037;-56
2023/07/02 11:34:35;;;;;;;;;;;23.20;80.40;;;;;;5015560;28;20049;-56
2023/07/02 11:37:01;;;;;;;95.07;22.67;;;23.30;80.30;;;;;;5020793;28;19909;-56
2023/07/02 11:39:26;;;;;;;119.32;25.48;;;23.30;80.20;;;;;;5024333;28;20041;-56
2023/07/02 11:41:52;;;;;;;97.18;24.50;;;23.30;80.20;;;;;;5026303;28;20034;-56
2023/07/02 11:44:18;;;;;;;102.43;24.45;;;23.40;80.00;;;;;;5027872;28;20086;-56
2023/07/02 11:46:43;;;;;;;89.63;23.67;;;23.40;79.90;;;;;;5028556;28;20037;-56
2023/07/02 11:49:09;;;;;;;103.85;25.48;;;23.50;79.80;;;;;;5006560;28;20549;-56
2023/07/02 11:51:38;;;;;;;120.30;24.88;;;23.60;80.30;;;;;;5020884;28;20030;-56
2023/07/02 11:54:04;;;;;;;132.05;27.90;;;23.60;79.60;;;;;;5027446;28;20026;-56
2023/07/02 11:56:30;;;;;;;98.55;25.40;;;23.70;79.50;;;;;;5026338;28;20057;-56
2023/07/02 11:58:55;;;;;;;95.82;23.55;;;23.80;79.20;;;;;;5026381;28;20040;-56
2023/07/02 12:01:21;;;;;;;105.70;24.75;;;23.80;79.10;;;;;;5030672;28;20029;-56
2023/07/02 12:03:47;;;;;;;122.35;24.92;;;23.90;78.90;;;;;;5014144;28;20058;-56
2023/07/02 12:06:12;;;;;;;113.30;24.52;;;24.00;78.60;;;;;;5007006;28;20566;-56
2023/07/02 12:08:38;;;;;;;155.40;26.60;;;24.10;78.40;;;;;;5019744;28;20045;-56
2023/07/02 12:11:03;;;;;;;169.55;26.75;;;24.10;78.10;;;;;;5021856;28;20061;-52
2023/07/02 12:13:29;;;;;;;148.48;25.25;;;24.20;78.00;;;;;;5029245;28;20033;-51
2023/07/02 12:15:54;;;;;;;145.27;24.80;;;24.20;77.90;;;;;;5035911;28;20091;-51
2023/07/02 12:18:20;;;;;;;122.85;23.27;;;24.30;77.40;;;;;;5015294;28;20053;-52
2023/07/02 12:20:45;;;;;;;126.78;23.55;;;24.40;76.70;;;;;;5034121;28;20033;-52
2023/07/02 12:23:11;;;;;;;117.28;22.60;;;24.40;76.30;;;;;;5044472;28;20033;-52
2023/07/02 12:25:37;;;;;;;138.13;23.23;;;24.50;76.20;;;;;;5025905;28;20025;-52
2023/07/02 12:28:03;;;;;;;136.25;23.13;;;24.50;75.80;;;;;;5020899;28;20375;-52
2023/07/02 12:30:29;;;;;;;128.70;22.63;;;24.60;75.60;;;;;;5012963;28;20038;-51
2023/07/02 12:32:54;;;;;;;120.30;22.27;;;24.60;75.50;;;;;;4997793;28;20037;-51